Terminal Aerodrome Forecast
Issued by NWS Charleston, WV

Current Version | Previous Version | Graphics & Text | Print | Product List | Glossary On
Versions: 1 2 3 4 5 6 7 8 9 10 11 12 13 14 15 16 17 18 19 20 21 22
000
FTUS41 KRLX 161700
TAFEKN
TAF
KEKN 161740Z 1618/1718 17006KT 6SM -SHRA OVC050
     FM170200 20005KT P6SM BKN035
     FM171000 21007KT P6SM BKN020
     FM171500 27005KT P6SM VCSH BKN015
     FM171700 27005KT P6SM SCT015=

USA.gov is the U.S. government's official web portal to all federal, state and local government web resources and services.